sensor_id;sensor_type;location;lat;lon;timestamp;pressure;altitude;pressure_sealevel;temperature;humidity
42411;BME280;28056;51.112;0.984;2024-03-07T00:00:59;101441.41;;;9.85;80.46
42411;BME280;28056;51.112;0.984;2024-03-07T00:03:26;101441.26;;;10.19;80.40
42411;BME280;28056;51.112;0.984;2024-03-07T00:05:54;101442.79;;;9.96;80.73
42411;BME280;28056;51.112;0.984;2024-03-07T00:08:22;101440.08;;;9.95;81.42
42411;BME280;28056;51.112;0.984;2024-03-07T00:10:49;101442.19;;;9.98;81.81
42411;BME280;28056;51.112;0.984;2024-03-07T00:13:16;101434.90;;;10.37;80.84
42411;BME280;28056;51.112;0.984;2024-03-07T00:15:43;101431.78;;;10.46;80.93
42411;BME280;28056;51.112;0.984;2024-03-07T00:18:11;101435.03;;;10.37;80.68
42411;BME280;28056;51.112;0.984;2024-03-07T00:20:38;101434.04;;;10.45;80.30
42411;BME280;28056;51.112;0.984;2024-03-07T00:23:06;101431.68;;;10.39;80.99
42411;BME280;28056;51.112;0.984;2024-03-07T00:25:33;101430.23;;;10.37;81.25
42411;BME280;28056;51.112;0.984;2024-03-07T00:28:01;101427.50;;;10.69;80.25
42411;BME280;28056;51.112;0.984;2024-03-07T00:30:28;101428.12;;;10.47;80.21
42411;BME280;28056;51.112;0.984;2024-03-07T00:32:56;101429.70;;;10.47;80.41
42411;BME280;28056;51.112;0.984;2024-03-07T00:35:23;101428.47;;;10.56;79.49
42411;BME280;28056;51.112;0.984;2024-03-07T00:37:50;101428.63;;;10.41;79.31
42411;BME280;28056;51.112;0.984;2024-03-07T00:40:18;101427.02;;;10.59;79.45
42411;BME280;28056;51.112;0.984;2024-03-07T00:42:45;101425.84;;;10.55;78.90
42411;BME280;28056;51.112;0.984;2024-03-07T00:45:13;101423.25;;;10.47;79.37
42411;BME280;28056;51.112;0.984;2024-03-07T00:47:40;101420.21;;;10.16;79.75
42411;BME280;28056;51.112;0.984;2024-03-07T00:50:08;101413.79;;;10.16;78.61
42411;BME280;28056;51.112;0.984;2024-03-07T00:52:35;101414.72;;;10.31;78.37
42411;BME280;28056;51.112;0.984;2024-03-07T00:55:03;101413.78;;;10.18;78.85
42411;BME280;28056;51.112;0.984;2024-03-07T00:57:31;101412.83;;;10.27;78.75
42411;BME280;28056;51.112;0.984;2024-03-07T00:59:58;101411.81;;;10.09;77.76
42411;BME280;28056;51.112;0.984;2024-03-07T01:04:47;101410.25;;;9.88;76.58
42411;BME280;28056;51.112;0.984;2024-03-07T01:07:15;101410.46;;;10.13;75.71
42411;BME280;28056;51.112;0.984;2024-03-07T01:09:43;101412.79;;;10.45;76.18
42411;BME280;28056;51.112;0.984;2024-03-07T01:12:11;101410.80;;;10.00;76.92
42411;BME280;28056;51.112;0.984;2024-03-07T01:14:38;101411.71;;;9.66;77.79
42411;BME280;28056;51.112;0.984;2024-03-07T01:17:05;101411.94;;;9.84;78.00
42411;BME280;28056;51.112;0.984;2024-03-07T01:19:33;101409.47;;;9.73;79.45
42411;BME280;28056;51.112;0.984;2024-03-07T01:22:00;101406.42;;;9.60;79.64
42411;BME280;28056;51.112;0.984;2024-03-07T01:24:27;101409.86;;;9.93;82.20
42411;BME280;28056;51.112;0.984;2024-03-07T01:26:54;101406.97;;;9.84;79.86
42411;BME280;28056;51.112;0.984;2024-03-07T01:29:21;101404.86;;;9.70;80.59
42411;BME280;28056;51.112;0.984;2024-03-07T01:31:49;101403.76;;;9.57;81.16
42411;BME280;28056;51.112;0.984;2024-03-07T01:34:16;101397.04;;;9.43;82.09
42411;BME280;28056;51.112;0.984;2024-03-07T01:36:44;101395.06;;;9.43;84.05
42411;BME280;28056;51.112;0.984;2024-03-07T01:39:11;101392.84;;;9.49;82.21
42411;BME280;28056;51.112;0.984;2024-03-07T01:41:38;101392.91;;;9.42;81.62
42411;BME280;28056;51.112;0.984;2024-03-07T01:44:05;101388.78;;;9.41;81.30
42411;BME280;28056;51.112;0.984;2024-03-07T01:46:32;101388.41;;;9.45;80.36
42411;BME280;28056;51.112;0.984;2024-03-07T01:49:00;101382.25;;;9.54;81.56
42411;BME280;28056;51.112;0.984;2024-03-07T01:51:27;101380.21;;;9.36;81.28
42411;BME280;28056;51.112;0.984;2024-03-07T01:53:55;101379.23;;;9.29;80.87
42411;BME280;28056;51.112;0.984;2024-03-07T01:56:22;101375.86;;;9.11;81.84
42411;BME280;28056;51.112;0.984;2024-03-07T01:58:52;101374.62;;;9.07;81.75
42411;BME280;28056;51.112;0.984;2024-03-07T02:01:20;101370.51;;;9.33;81.47
42411;BME280;28056;51.112;0.984;2024-03-07T02:03:48;101367.72;;;9.17;80.74
42411;BME280;28056;51.112;0.984;2024-03-07T02:06:15;101370.32;;;9.20;80.73
42411;BME280;28056;51.112;0.984;2024-03-07T02:08:43;101369.46;;;9.44;80.41
42411;BME280;28056;51.112;0.984;2024-03-07T02:11:11;101366.78;;;9.63;80.01
42411;BME280;28056;51.112;0.984;2024-03-07T02:13:38;101363.52;;;9.37;79.47
42411;BME280;28056;51.112;0.984;2024-03-07T02:16:06;101366.43;;;9.54;79.31
42411;BME280;28056;51.112;0.984;2024-03-07T02:18:34;101364.19;;;9.18;79.48
42411;BME280;28056;51.112;0.984;2024-03-07T02:21:06;101362.23;;;9.14;79.00
42411;BME280;28056;51.112;0.984;2024-03-07T02:23:34;101360.87;;;9.29;78.89
42411;BME280;28056;51.112;0.984;2024-03-07T02:26:01;101359.90;;;9.29;78.61
42411;BME280;28056;51.112;0.984;2024-03-07T02:28:29;101359.30;;;9.04;78.69
42411;BME280;28056;51.112;0.984;2024-03-07T02:30:56;101359.94;;;9.23;77.95
42411;BME280;28056;51.112;0.984;2024-03-07T02:33:23;101355.04;;;9.45;77.72
42411;BME280;28056;51.112;0.984;2024-03-07T02:35:51;101351.39;;;8.95;77.82
42411;BME280;28056;51.112;0.984;2024-03-07T02:38:18;101348.60;;;8.92;77.50
42411;BME280;28056;51.112;0.984;2024-03-07T02:40:46;101343.45;;;9.15;77.09
42411;BME280;28056;51.112;0.984;2024-03-07T02:43:14;101345.41;;;8.94;76.96
42411;BME280;28056;51.112;0.984;2024-03-07T02:45:42;101343.41;;;9.40;77.74
42411;BME280;28056;51.112;0.984;2024-03-07T02:48:09;101341.20;;;8.97;77.61
42411;BME280;28056;51.112;0.984;2024-03-07T02:50:36;101342.56;;;9.15;77.07
42411;BME280;28056;51.112;0.984;2024-03-07T02:53:04;101340.23;;;9.40;76.73
42411;BME280;28056;51.112;0.984;2024-03-07T02:55:32;101340.43;;;9.12;76.98
42411;BME280;28056;51.112;0.984;2024-03-07T02:58:35;101338.16;;;9.35;76.48
42411;BME280;28056;51.112;0.984;2024-03-07T03:01:03;101335.63;;;9.12;76.51
42411;BME280;28056;51.112;0.984;2024-03-07T03:03:30;101334.53;;;9.09;76.15
42411;BME280;28056;51.112;0.984;2024-03-07T03:05:58;101334.95;;;9.30;75.49
42411;BME280;28056;51.112;0.984;2024-03-07T03:08:25;101334.41;;;9.23;75.06
42411;BME280;28056;51.112;0.984;2024-03-07T03:10:53;101331.45;;;8.93;74.75
42411;BME280;28056;51.112;0.984;2024-03-07T03:13:21;101329.55;;;9.09;74.37
42411;BME280;28056;51.112;0.984;2024-03-07T03:15:49;101327.97;;;9.06;74.39
42411;BME280;28056;51.112;0.984;2024-03-07T03:18:17;101325.36;;;9.05;74.41
42411;BME280;28056;51.112;0.984;2024-03-07T03:20:44;101324.23;;;9.05;74.73
42411;BME280;28056;51.112;0.984;2024-03-07T03:23:12;101322.85;;;8.78;74.97
42411;BME280;28056;51.112;0.984;2024-03-07T03:25:40;101322.13;;;8.74;74.55
42411;BME280;28056;51.112;0.984;2024-03-07T03:28:07;101323.34;;;8.50;74.43
42411;BME280;28056;51.112;0.984;2024-03-07T03:30:35;101321.56;;;8.76;74.56
42411;BME280;28056;51.112;0.984;2024-03-07T03:33:03;101318.43;;;8.72;74.70
42411;BME280;28056;51.112;0.984;2024-03-07T03:35:30;101317.46;;;8.73;75.22
42411;BME280;28056;51.112;0.984;2024-03-07T03:37:58;101311.22;;;8.65;76.74
42411;BME280;28056;51.112;0.984;2024-03-07T03:40:26;101311.45;;;8.73;78.32
42411;BME280;28056;51.112;0.984;2024-03-07T03:42:54;101308.44;;;8.66;77.20
42411;BME280;28056;51.112;0.984;2024-03-07T03:45:21;101306.17;;;8.75;77.30
42411;BME280;28056;51.112;0.984;2024-03-07T03:47:49;101303.14;;;8.60;77.65
42411;BME280;28056;51.112;0.984;2024-03-07T03:50:16;101300.49;;;8.80;78.53
42411;BME280;28056;51.112;0.984;2024-03-07T03:52:44;101301.87;;;8.64;79.10
42411;BME280;28056;51.112;0.984;2024-03-07T03:55:12;101305.42;;;8.51;80.13
42411;BME280;28056;51.112;0.984;2024-03-07T03:57:40;101304.54;;;8.38;80.77
42411;BME280;28056;51.112;0.984;2024-03-07T04:00:10;101303.55;;;8.78;82.20
42411;BME280;28056;51.112;0.984;2024-03-07T04:02:38;101305.71;;;8.97;81.57
42411;BME280;28056;51.112;0.984;2024-03-07T04:05:06;101308.06;;;8.85;83.24
42411;BME280;28056;51.112;0.984;2024-03-07T04:07:34;101308.74;;;8.47;85.40
42411;BME280;28056;51.112;0.984;2024-03-07T04:10:01;101311.17;;;8.75;85.54
42411;BME280;28056;51.112;0.984;2024-03-07T04:12:29;101311.54;;;8.83;83.47
42411;BME280;28056;51.112;0.984;2024-03-07T04:14:56;101312.49;;;8.80;86.37
42411;BME280;28056;51.112;0.984;2024-03-07T04:17:24;101312.19;;;8.86;85.17
42411;BME280;28056;51.112;0.984;2024-03-07T04:19:51;101311.10;;;8.40;84.08
42411;BME280;28056;51.112;0.984;2024-03-07T04:22:19;101311.15;;;8.75;84.11
42411;BME280;28056;51.112;0.984;2024-03-07T04:24:46;101314.76;;;9.04;84.22
42411;BME280;28056;51.112;0.984;2024-03-07T04:27:14;101314.29;;;8.93;85.33
42411;BME280;28056;51.112;0.984;2024-03-07T04:29:41;101315.56;;;9.00;88.94
42411;BME280;28056;51.112;0.984;2024-03-07T04:32:09;101311.53;;;9.10;87.91
42411;BME280;28056;51.112;0.984;2024-03-07T04:34:37;101310.72;;;9.25;87.72
42411;BME280;28056;51.112;0.984;2024-03-07T04:37:05;101307.07;;;9.41;87.80
42411;BME280;28056;51.112;0.984;2024-03-07T04:39:33;101307.59;;;8.94;88.00
42411;BME280;28056;51.112;0.984;2024-03-07T04:42:01;101303.44;;;9.34;87.87
42411;BME280;28056;51.112;0.984;2024-03-07T04:44:29;101301.86;;;9.64;87.70
42411;BME280;28056;51.112;0.984;2024-03-07T04:46:57;101302.27;;;9.28;88.53
42411;BME280;28056;51.112;0.984;2024-03-07T04:49:26;101300.36;;;9.27;87.12
42411;BME280;28056;51.112;0.984;2024-03-07T04:51:55;101303.68;;;9.35;86.68
42411;BME280;28056;51.112;0.984;2024-03-07T04:54:23;101305.39;;;9.31;86.67
42411;BME280;28056;51.112;0.984;2024-03-07T04:56:52;101305.93;;;9.63;85.81
42411;BME280;28056;51.112;0.984;2024-03-07T04:59:20;101302.58;;;9.28;84.54
42411;BME280;28056;51.112;0.984;2024-03-07T05:01:49;101297.56;;;9.27;84.43
42411;BME280;28056;51.112;0.984;2024-03-07T05:04:17;101295.89;;;9.27;84.20
42411;BME280;28056;51.112;0.984;2024-03-07T05:06:45;101297.90;;;9.16;83.61
42411;BME280;28056;51.112;0.984;2024-03-07T05:09:13;101297.85;;;9.40;83.18
42411;BME280;28056;51.112;0.984;2024-03-07T05:11:40;101299.51;;;9.26;83.25
42411;BME280;28056;51.112;0.984;2024-03-07T05:14:08;101297.18;;;9.39;82.73
42411;BME280;28056;51.112;0.984;2024-03-07T05:16:36;101297.32;;;8.90;82.59
42411;BME280;28056;51.112;0.984;2024-03-07T05:19:03;101296.42;;;8.88;82.05
42411;BME280;28056;51.112;0.984;2024-03-07T05:21:30;101297.12;;;9.33;81.86
42411;BME280;28056;51.112;0.984;2024-03-07T05:23:58;101294.52;;;9.30;81.23
42411;BME280;28056;51.112;0.984;2024-03-07T05:26:26;101293.70;;;8.92;82.08
42411;BME280;28056;51.112;0.984;2024-03-07T05:28:53;101291.84;;;9.06;82.68
42411;BME280;28056;51.112;0.984;2024-03-07T05:31:21;101289.40;;;8.82;82.18
42411;BME280;28056;51.112;0.984;2024-03-07T05:33:48;101286.85;;;8.99;82.50
42411;BME280;28056;51.112;0.984;2024-03-07T05:36:15;101287.43;;;8.95;84.42
42411;BME280;28056;51.112;0.984;2024-03-07T05:38:43;101288.57;;;8.99;85.93
42411;BME280;28056;51.112;0.984;2024-03-07T05:41:11;101286.72;;;8.86;84.00
42411;BME280;28056;51.112;0.984;2024-03-07T05:43:39;101283.07;;;8.60;83.15
42411;BME280;28056;51.112;0.984;2024-03-07T05:46:07;101281.90;;;9.04;82.25
42411;BME280;28056;51.112;0.984;2024-03-07T05:48:34;101278.32;;;9.07;82.35
42411;BME280;28056;51.112;0.984;2024-03-07T05:51:02;101278.89;;;9.00;81.74
42411;BME280;28056;51.112;0.984;2024-03-07T05:53:30;101277.94;;;8.99;83.75
42411;BME280;28056;51.112;0.984;2024-03-07T05:55:57;101279.23;;;8.86;84.71
42411;BME280;28056;51.112;0.984;2024-03-07T05:58:24;101280.17;;;8.73;82.37
42411;BME280;28056;51.112;0.984;2024-03-07T06:00:52;101279.89;;;8.96;82.08
42411;BME280;28056;51.112;0.984;2024-03-07T06:03:19;101280.65;;;8.69;81.77
42411;BME280;28056;51.112;0.984;2024-03-07T06:05:48;101278.68;;;9.05;82.69
42411;BME280;28056;51.112;0.984;2024-03-07T06:08:16;101281.98;;;8.94;83.83
42411;BME280;28056;51.112;0.984;2024-03-07T06:10:44;101280.50;;;8.89;83.21
42411;BME280;28056;51.112;0.984;2024-03-07T06:13:11;101280.46;;;8.68;84.17
42411;BME280;28056;51.112;0.984;2024-03-07T06:15:39;101281.08;;;9.15;83.74
42411;BME280;28056;51.112;0.984;2024-03-07T06:18:07;101279.18;;;8.86;84.50
42411;BME280;28056;51.112;0.984;2024-03-07T06:20:35;101277.33;;;8.65;84.65
42411;BME280;28056;51.112;0.984;2024-03-07T06:23:02;101277.83;;;8.52;84.69
42411;BME280;28056;51.112;0.984;2024-03-07T06:25:29;101278.78;;;8.41;84.22
42411;BME280;28056;51.112;0.984;2024-03-07T06:27:57;101281.55;;;8.40;84.52
42411;BME280;28056;51.112;0.984;2024-03-07T06:30:24;101282.53;;;8.26;84.50
42411;BME280;28056;51.112;0.984;2024-03-07T06:32:51;101281.93;;;7.95;85.77
42411;BME280;28056;51.112;0.984;2024-03-07T06:35:18;101281.69;;;7.78;89.65
42411;BME280;28056;51.112;0.984;2024-03-07T06:37:45;101279.71;;;7.81;89.79
42411;BME280;28056;51.112;0.984;2024-03-07T06:40:12;101278.52;;;7.56;91.75
42411;BME280;28056;51.112;0.984;2024-03-07T06:42:40;101276.68;;;7.34;91.98
42411;BME280;28056;51.112;0.984;2024-03-07T06:45:08;101276.23;;;6.99;96.60
42411;BME280;28056;51.112;0.984;2024-03-07T06:47:35;101275.35;;;7.41;96.39
42411;BME280;28056;51.112;0.984;2024-03-07T06:50:04;101272.10;;;7.34;94.81
42411;BME280;28056;51.112;0.984;2024-03-07T06:52:31;101271.74;;;7.18;96.40
42411;BME280;28056;51.112;0.984;2024-03-07T06:54:59;101271.25;;;7.15;96.91
42411;BME280;28056;51.112;0.984;2024-03-07T06:57:26;101272.02;;;7.57;93.88
42411;BME280;28056;51.112;0.984;2024-03-07T06:59:54;101269.64;;;7.72;92.71
42411;BME280;28056;51.112;0.984;2024-03-07T07:02:21;101270.74;;;7.73;93.42
42411;BME280;28056;51.112;0.984;2024-03-07T07:04:49;101272.78;;;7.72;94.12
42411;BME280;28056;51.112;0.984;2024-03-07T07:07:17;101278.32;;;7.94;93.04
42411;BME280;28056;51.112;0.984;2024-03-07T07:09:44;101276.40;;;8.02;92.76
42411;BME280;28056;51.112;0.984;2024-03-07T07:12:11;101274.55;;;8.01;93.70
42411;BME280;28056;51.112;0.984;2024-03-07T07:14:38;101273.07;;;7.31;100.00
42411;BME280;28056;51.112;0.984;2024-03-07T07:17:06;101274.40;;;6.66;100.00
42411;BME280;28056;51.112;0.984;2024-03-07T07:19:34;101271.80;;;7.45;100.00
42411;BME280;28056;51.112;0.984;2024-03-07T07:22:01;101267.30;;;6.75;100.00
42411;BME280;28056;51.112;0.984;2024-03-07T07:24:28;101268.33;;;6.85;100.00
42411;BME280;28056;51.112;0.984;2024-03-07T07:26:56;101263.17;;;7.26;100.00
42411;BME280;28056;51.112;0.984;2024-03-07T07:29:23;101261.55;;;7.58;100.00
42411;BME280;28056;51.112;0.984;2024-03-07T07:31:51;101262.12;;;8.14;100.00
42411;BME280;28056;51.112;0.984;2024-03-07T07:34:18;101262.96;;;7.90;100.00
42411;BME280;28056;51.112;0.984;2024-03-07T07:36:46;101259.20;;;7.39;100.00
42411;BME280;28056;51.112;0.984;2024-03-07T07:39:13;101259.04;;;7.83;100.00
42411;BME280;28056;51.112;0.984;2024-03-07T07:41:40;101258.57;;;7.94;100.00
42411;BME280;28056;51.112;0.984;2024-03-07T07:44:07;101256.52;;;8.50;100.00
42411;BME280;28056;51.112;0.984;2024-03-07T07:46:34;101259.36;;;8.28;100.00
42411;BME280;28056;51.112;0.984;2024-03-07T07:49:02;101259.53;;;7.77;100.00
42411;BME280;28056;51.112;0.984;2024-03-07T07:51:29;101253.83;;;8.28;100.00
42411;BME280;28056;51.112;0.984;2024-03-07T07:53:56;101254.17;;;8.47;100.00
42411;BME280;28056;51.112;0.984;2024-03-07T07:56:24;101253.95;;;8.32;100.00
42411;BME280;28056;51.112;0.984;2024-03-07T07:58:51;101249.97;;;8.78;100.00
42411;BME280;28056;51.112;0.984;2024-03-07T08:01:23;101250.61;;;8.81;100.00
42411;BME280;28056;51.112;0.984;2024-03-07T08:03:50;101248.47;;;8.11;100.00
42411;BME280;28056;51.112;0.984;2024-03-07T08:06:17;101243.05;;;8.59;100.00
42411;BME280;28056;51.112;0.984;2024-03-07T08:08:45;101239.81;;;8.25;100.00
42411;BME280;28056;51.112;0.984;2024-03-07T08:11:13;101238.09;;;8.79;100.00
42411;BME280;28056;51.112;0.984;2024-03-07T08:13:40;101238.98;;;8.81;100.00
42411;BME280;28056;51.112;0.984;2024-03-07T08:16:10;101241.18;;;8.60;100.00
42411;BME280;28056;51.112;0.984;2024-03-07T08:18:38;101237.01;;;8.56;100.00
42411;BME280;28056;51.112;0.984;2024-03-07T08:21:05;101236.14;;;8.15;100.00
42411;BME280;28056;51.112;0.984;2024-03-07T08:23:33;101238.43;;;8.70;100.00
42411;BME280;28056;51.112;0.984;2024-03-07T08:26:06;101237.80;;;9.26;100.00
42411;BME280;28056;51.112;0.984;2024-03-07T08:28:33;101233.20;;;8.53;100.00
42411;BME280;28056;51.112;0.984;2024-03-07T08:31:00;101232.67;;;8.61;100.00
42411;BME280;28056;51.112;0.984;2024-03-07T08:33:33;101231.72;;;9.08;100.00
42411;BME280;28056;51.112;0.984;2024-03-07T08:36:01;101225.85;;;9.03;100.00
42411;BME280;28056;51.112;0.984;2024-03-07T08:38:29;101221.75;;;8.82;100.00
42411;BME280;28056;51.112;0.984;2024-03-07T08:40:56;101223.21;;;9.40;100.00
42411;BME280;28056;51.112;0.984;2024-03-07T08:43:23;101220.99;;;9.32;100.00
42411;BME280;28056;51.112;0.984;2024-03-07T08:45:51;101220.61;;;9.40;100.00
42411;BME280;28056;51.112;0.984;2024-03-07T08:48:18;101218.32;;;8.87;100.00
42411;BME280;28056;51.112;0.984;2024-03-07T08:50:45;101212.83;;;8.99;100.00
42411;BME280;28056;51.112;0.984;2024-03-07T08:53:13;101208.86;;;8.44;100.00
42411;BME280;28056;51.112;0.984;2024-03-07T08:55:41;101211.59;;;9.23;100.00
42411;BME280;28056;51.112;0.984;2024-03-07T08:58:08;101212.90;;;9.10;100.00
42411;BME280;28056;51.112;0.984;2024-03-07T09:00:36;101217.68;;;9.08;100.00
42411;BME280;28056;51.112;0.984;2024-03-07T09:03:04;101214.79;;;9.15;100.00
42411;BME280;28056;51.112;0.984;2024-03-07T09:05:31;101207.71;;;9.24;100.00
42411;BME280;28056;51.112;0.984;2024-03-07T09:07:59;101204.08;;;9.21;100.00
42411;BME280;28056;51.112;0.984;2024-03-07T09:10:27;101202.73;;;8.76;100.00
42411;BME280;28056;51.112;0.984;2024-03-07T09:12:55;101205.29;;;9.73;100.00
42411;BME280;28056;51.112;0.984;2024-03-07T09:15:22;101203.50;;;9.76;100.00
42411;BME280;28056;51.112;0.984;2024-03-07T09:17:50;101198.76;;;9.11;100.00
42411;BME280;28056;51.112;0.984;2024-03-07T09:20:17;101203.32;;;9.85;100.00
42411;BME280;28056;51.112;0.984;2024-03-07T09:22:44;101201.69;;;9.43;100.00
42411;BME280;28056;51.112;0.984;2024-03-07T09:25:12;101200.08;;;9.48;100.00
42411;BME280;28056;51.112;0.984;2024-03-07T09:27:40;101200.67;;;9.23;100.00
42411;BME280;28056;51.112;0.984;2024-03-07T09:30:08;101199.82;;;9.60;100.00
42411;BME280;28056;51.112;0.984;2024-03-07T09:32:36;101196.93;;;8.87;100.00
42411;BME280;28056;51.112;0.984;2024-03-07T09:35:05;101199.29;;;9.17;100.00
42411;BME280;28056;51.112;0.984;2024-03-07T09:37:32;101197.47;;;9.87;100.00
42411;BME280;28056;51.112;0.984;2024-03-07T09:40:00;101198.86;;;9.31;100.00
42411;BME280;28056;51.112;0.984;2024-03-07T09:42:28;101196.77;;;9.67;100.00
42411;BME280;28056;51.112;0.984;2024-03-07T09:44:56;101196.98;;;9.77;100.00
42411;BME280;28056;51.112;0.984;2024-03-07T09:47:26;101188.57;;;10.71;100.00
42411;BME280;28056;51.112;0.984;2024-03-07T09:49:53;101188.37;;;10.13;100.00
42411;BME280;28056;51.112;0.984;2024-03-07T09:52:21;101193.17;;;10.34;100.00
42411;BME280;28056;51.112;0.984;2024-03-07T09:54:49;101187.26;;;10.40;100.00
42411;BME280;28056;51.112;0.984;2024-03-07T09:57:22;101187.38;;;10.65;100.00
42411;BME280;28056;51.112;0.984;2024-03-07T09:59:49;101185.02;;;10.22;100.00
42411;BME280;28056;51.112;0.984;2024-03-07T10:02:18;101184.62;;;10.27;100.00
42411;BME280;28056;51.112;0.984;2024-03-07T10:04:49;101179.32;;;10.10;100.00
42411;BME280;28056;51.112;0.984;2024-03-07T10:07:18;101180.73;;;10.81;100.00
42411;BME280;28056;51.112;0.984;2024-03-07T10:09:46;101177.63;;;10.51;100.00
42411;BME280;28056;51.112;0.984;2024-03-07T10:12:14;101168.96;;;10.66;100.00
42411;BME280;28056;51.112;0.984;2024-03-07T10:14:48;101167.43;;;10.24;100.00
42411;BME280;28056;51.112;0.984;2024-03-07T10:17:16;101159.62;;;10.06;100.00
42411;BME280;28056;51.112;0.984;2024-03-07T10:19:47;101158.27;;;9.71;100.00
42411;BME280;28056;51.112;0.984;2024-03-07T10:22:14;101153.86;;;9.92;100.00
42411;BME280;28056;51.112;0.984;2024-03-07T10:24:50;101152.86;;;10.34;100.00
42411;BME280;28056;51.112;0.984;2024-03-07T10:27:18;101150.83;;;9.62;100.00
42411;BME280;28056;51.112;0.984;2024-03-07T10:29:46;101152.88;;;9.80;100.00
42411;BME280;28056;51.112;0.984;2024-03-07T10:32:14;101157.35;;;9.58;100.00
42411;BME280;28056;51.112;0.984;2024-03-07T10:34:46;101150.23;;;9.51;100.00
42411;BME280;28056;51.112;0.984;2024-03-07T10:37:14;101152.10;;;10.21;100.00
42411;BME280;28056;51.112;0.984;2024-03-07T10:39:42;101151.71;;;10.34;100.00
42411;BME280;28056;51.112;0.984;2024-03-07T10:42:14;101145.10;;;10.36;100.00
42411;BME280;28056;51.112;0.984;2024-03-07T10:44:45;101143.36;;;9.96;100.00
42411;BME280;28056;51.112;0.984;2024-03-07T10:47:16;101140.17;;;10.88;100.00
42411;BME280;28056;51.112;0.984;2024-03-07T10:49:53;101137.80;;;10.76;100.00
42411;BME280;28056;51.112;0.984;2024-03-07T10:52:34;101138.40;;;10.51;100.00
42411;BME280;28056;51.112;0.984;2024-03-07T10:55:15;101136.98;;;10.86;100.00
42411;BME280;28056;51.112;0.984;2024-03-07T10:57:50;101130.56;;;10.44;100.00
42411;BME280;28056;51.112;0.984;2024-03-07T11:00:18;101128.56;;;10.55;100.00
42411;BME280;28056;51.112;0.984;2024-03-07T11:02:47;101122.07;;;11.39;100.00
42411;BME280;28056;51.112;0.984;2024-03-07T11:05:14;101116.26;;;11.92;100.00
42411;BME280;28056;51.112;0.984;2024-03-07T11:07:43;101109.70;;;11.63;100.00
42411;BME280;28056;51.112;0.984;2024-03-07T11:10:11;101105.25;;;11.75;100.00
42411;BME280;28056;51.112;0.984;2024-03-07T11:12:40;101103.23;;;10.92;99.96
42411;BME280;28056;51.112;0.984;2024-03-07T11:15:09;101097.47;;;11.18;99.83
42411;BME280;28056;51.112;0.984;2024-03-07T11:17:38;101104.55;;;11.54;97.68
42411;BME280;28056;51.112;0.984;2024-03-07T11:20:23;101102.21;;;11.37;96.03
42411;BME280;28056;51.112;0.984;2024-03-07T11:22:51;101096.29;;;11.76;95.66
42411;BME280;28056;51.112;0.984;2024-03-07T11:25:20;101094.48;;;11.88;99.60
42411;BME280;28056;51.112;0.984;2024-03-07T11:27:56;101093.23;;;12.45;93.76
42411;BME280;28056;51.112;0.984;2024-03-07T11:30:24;101089.91;;;13.09;94.35
42411;BME280;28056;51.112;0.984;2024-03-07T11:32:52;101093.99;;;12.77;89.51
42411;BME280;28056;51.112;0.984;2024-03-07T11:35:20;101090.19;;;12.18;90.30
42411;BME280;28056;51.112;0.984;2024-03-07T11:37:48;101089.41;;;13.27;88.78
42411;BME280;28056;51.112;0.984;2024-03-07T11:40:43;101085.18;;;13.69;83.05
42411;BME280;28056;51.112;0.984;2024-03-07T11:43:12;101084.54;;;13.97;89.03
42411;BME280;28056;51.112;0.984;2024-03-07T11:45:40;101077.08;;;14.62;90.17
42411;BME280;28056;51.112;0.984;2024-03-07T11:48:08;101074.42;;;14.81;80.00
42411;BME280;28056;51.112;0.984;2024-03-07T11:50:36;101073.57;;;14.21;78.60
42411;BME280;28056;51.112;0.984;2024-03-07T11:53:16;101072.65;;;15.25;78.91
42411;BME280;28056;51.112;0.984;2024-03-07T11:55:44;101067.35;;;14.72;72.80
42411;BME280;28056;51.112;0.984;2024-03-07T11:58:13;101064.86;;;14.45;71.43
42411;BME280;28056;51.112;0.984;2024-03-07T12:00:41;101062.88;;;14.22;71.16
42411;BME280;28056;51.112;0.984;2024-03-07T12:03:09;101060.78;;;14.59;70.29
42411;BME280;28056;51.112;0.984;2024-03-07T12:05:37;101054.32;;;15.31;70.51
42411;BME280;28056;51.112;0.984;2024-03-07T12:08:04;101046.95;;;15.35;66.36
42411;BME280;28056;51.112;0.984;2024-03-07T12:10:32;101046.03;;;15.79;74.01
42411;BME280;28056;51.112;0.984;2024-03-07T12:12:59;101037.48;;;16.14;61.28
42411;BME280;28056;51.112;0.984;2024-03-07T12:15:26;101041.08;;;16.23;65.38
42411;BME280;28056;51.112;0.984;2024-03-07T12:17:54;101032.05;;;15.80;62.12
42411;BME280;28056;51.112;0.984;2024-03-07T12:20:22;101033.42;;;15.81;64.35
42411;BME280;28056;51.112;0.984;2024-03-07T12:22:50;101032.65;;;16.39;58.16
42411;BME280;28056;51.112;0.984;2024-03-07T12:25:18;101036.83;;;16.37;61.15
42411;BME280;28056;51.112;0.984;2024-03-07T12:27:45;101029.18;;;16.27;59.77
42411;BME280;28056;51.112;0.984;2024-03-07T12:30:15;101022.28;;;16.32;60.56
42411;BME280;28056;51.112;0.984;2024-03-07T12:32:48;101023.67;;;17.45;59.98
42411;BME280;28056;51.112;0.984;2024-03-07T12:35:15;101016.38;;;16.45;53.34
42411;BME280;28056;51.112;0.984;2024-03-07T12:37:44;101011.17;;;16.98;58.79
42411;BME280;28056;51.112;0.984;2024-03-07T12:40:12;101005.56;;;17.17;54.48
42411;BME280;28056;51.112;0.984;2024-03-07T12:42:39;101005.81;;;17.97;55.42
42411;BME280;28056;51.112;0.984;2024-03-07T12:45:07;100998.58;;;17.36;51.66
42411;BME280;28056;51.112;0.984;2024-03-07T12:47:35;100992.26;;;18.35;49.38
42411;BME280;28056;51.112;0.984;2024-03-07T12:50:03;100990.81;;;18.54;45.07
42411;BME280;28056;51.112;0.984;2024-03-07T12:52:30;100988.87;;;17.45;44.32
42411;BME280;28056;51.112;0.984;2024-03-07T12:54:57;100983.59;;;18.09;52.50
42411;BME280;28056;51.112;0.984;2024-03-07T12:57:25;100977.18;;;18.51;45.71
42411;BME280;28056;51.112;0.984;2024-03-07T12:59:52;100977.26;;;18.03;46.91
42411;BME280;28056;51.112;0.984;2024-03-07T13:02:19;100969.43;;;19.30;47.34